Airfield :
LOGIN :

Register | Disclaimer

   EN    FR    IT 

 










Legend :    VFR   Marginal VFR   IFR   Intensive IFR   Very Intensive IFR
Visi :
Ceiling :
>= 8 km
>= 3000ft
5 to 8 km
1000 to 3000 ft
1500m to 5 km
500 to 1000 ft
800 to 1500m
200 to 500 ft
< 800m
< 200 ft
Symbols :   Thunderstorms  Fog  Heavy snow  Heavy precipitations  Wind > 20 kt
SIGMETs :     Misc.  Thunderstorms  Icing  Turbulence  Mountain Waves  Volcanic Ashes






- Airport Elevation : 458 ft


LFSI - St-Dizier

CURRENT METAR :
  • 041400Z AUTO 19005KT 150V230 CAVOK 20/12 Q1021

EXPIRED METARs :
  • 041330Z AUTO 15007KT 110V190 CAVOK 20/11 Q1021
  • 041300Z AUTO 19006KT 140V240 CAVOK 20/12 Q1021
  • 041230Z AUTO 16005KT 120V230 CAVOK 19/12 Q1022
  • 041200Z AUTO 15005KT 100V190 CAVOK 19/11 Q1022
  • 041130Z AUTO 16005KT 090V200 CAVOK 18/11 Q1022

TAF TAF LFSI
Valid from the 04 at 09:00 until the 05 at 09:00 UTC


040800Z 0409/0509 VRB03KT 9999 FEW010 SCT300
TEMPO 0412/0415 24010KT
BECMG 0420/0422 BKN004
TEMPO 0422/0506 4000 BR
BECMG 0506/0508 19010KT SCT005



MET'MAP, your aeronautical weather chart ! - Copyright ORBIFLY December 2007 - Disclaimer

ORBIFLY MET'MAP TEAM :

Programming & Development : Alexandra Zaïnal
Original concept : Baudouin d'Aumeries
Technical & hardware support : Manuel Goepfert
Assistance : Marc-Olivier Méhu




SOURCES & CREDITS :

   NOAA